Time;durP1;ratioP1;P1;durP2;ratioP2;P2;SDS_P1;SDS_P2;PMS_P1;PMS_P2;Temp;Humidity;BMP_temperature;BMP_pressure;BME280_temperature;BME280_humidity;BME280_pressure;Samples;Min_cycle;Max_cycle;Signal;HPM_P1;HPM_P2
2023/12/19 00:00:28;;;;;;;57.28;27.55;;;;;;;6.49;100.00;102469.84;5069678;28;20036;-74
2023/12/19 00:02:53;;;;;;;65.15;30.52;;;;;;;6.47;100.00;102474.16;5070070;28;20232;-74
2023/12/19 00:05:19;;;;;;;62.67;28.73;;;;;;;6.44;100.00;102462.88;5070020;28;20042;-74
2023/12/19 00:07:45;;;;;;;73.10;31.13;;;;;;;6.45;100.00;102462.03;5070122;28;20040;-74
2023/12/19 00:10:11;;;;;;;61.17;28.90;;;;;;;6.45;100.00;102456.81;5068834;28;20370;-74
2023/12/19 00:12:37;;;;;;;63.53;29.85;;;;;;;6.43;100.00;102442.94;5069297;28;20024;-74
2023/12/19 00:15:04;;;;;;;61.40;29.38;;;;;;;6.46;100.00;102427.34;5069538;28;20235;-74
2023/12/19 00:17:29;;;;;;;64.57;29.00;;;;;;;6.46;100.00;102411.72;5068953;28;20028;-73
2023/12/19 00:19:56;;;;;;;62.35;28.75;;;;;;;6.48;100.00;102404.78;5070450;28;20036;-74
2023/12/19 00:22:22;;;;;;;58.33;28.23;;;;;;;6.51;100.00;102404.75;5070619;28;20044;-74
2023/12/19 00:24:48;;;;;;;53.33;28.55;;;;;;;6.55;100.00;102416.94;5070652;28;20047;-74
2023/12/19 00:27:13;;;;;;;59.15;27.40;;;;;;;6.58;100.00;102411.72;5070862;28;20028;-73
2023/12/19 00:29:38;;;;;;;54.13;27.50;;;;;;;6.54;100.00;102402.16;5070940;28;20064;-74
2023/12/19 00:32:04;;;;;;;51.28;25.20;;;;;;;6.57;100.00;102407.38;5071143;28;20032;-74
2023/12/19 00:34:29;;;;;;;51.35;24.88;;;;;;;6.59;100.00;102400.44;5069150;28;20024;-74
2023/12/19 00:36:55;;;;;;;48.50;24.83;;;;;;;6.55;100.00;102390.91;5071006;28;20028;-74
2023/12/19 00:39:20;;;;;;;56.45;25.27;;;;;;;6.58;100.00;102387.41;5070823;28;20107;-74
2023/12/19 00:41:45;;;;;;;53.92;27.02;;;;;;;6.59;100.00;102387.44;5057762;28;20036;-74
2023/12/19 00:44:11;;;;;;;55.83;26.90;;;;;;;6.57;100.00;102396.97;5055578;28;20037;-74
2023/12/19 00:46:36;;;;;;;54.45;26.73;;;;;;;6.58;100.00;102400.44;5055316;28;20024;-74
2023/12/19 00:49:01;;;;;;;56.85;28.02;;;;;;;6.56;100.00;102391.75;5055802;28;20041;-74
2023/12/19 00:51:27;;;;;;;63.92;28.67;;;;;;;6.56;100.00;102391.75;5054813;28;20033;-74
2023/12/19 00:53:52;;;;;;;70.05;28.05;;;;;;;6.53;100.00;102390.91;5055327;28;20260;-74
2023/12/19 00:56:17;;;;;;;64.05;29.30;;;;;;;6.56;100.00;102379.59;5053857;28;20060;-74
2023/12/19 00:58:43;;;;;;;64.75;29.05;;;;;;;6.58;100.00;102380.47;5054942;28;20032;-74
2023/12/19 01:01:08;;;;;;;65.60;29.35;;;;;;;6.58;100.00;102370.06;5055372;28;20123;-74
2023/12/19 01:03:34;;;;;;;72.05;29.05;;;;;;;6.59;100.00;102371.81;5054540;28;20052;-74
2023/12/19 01:06:02;;;;;;;70.13;30.92;;;;;;;6.59;100.00;102371.81;5055111;28;20324;-74
2023/12/19 01:08:27;;;;;;;75.60;31.17;;;;;;;6.59;100.00;102365.75;5054432;28;20024;-74
2023/12/19 01:10:54;;;;;;;70.57;31.35;;;;;;;6.64;100.00;102361.38;5055019;28;20083;-74
2023/12/19 01:13:19;;;;;;;65.45;28.88;;;;;;;6.63;100.00;102354.47;5054640;28;20074;-74
2023/12/19 01:15:44;;;;;;;68.97;31.08;;;;;;;6.63;100.00;102360.53;5054746;28;20270;-74
2023/12/19 01:18:10;;;;;;;65.20;29.75;;;;;;;6.61;100.00;102362.25;5055273;28;20045;-74
2023/12/19 01:20:35;;;;;;;78.05;30.83;;;;;;;6.61;100.00;102353.59;5054760;28;20254;-74
2023/12/19 01:23:01;;;;;;;70.32;31.80;;;;;;;6.65;100.00;102350.09;5055036;28;20237;-74
2023/12/19 01:25:26;;;;;;;71.72;29.25;;;;;;;6.64;100.00;102354.47;5054394;28;20033;-76
2023/12/19 01:27:51;;;;;;;65.90;29.48;;;;;;;6.68;100.00;102355.31;5055080;28;20359;-74
2023/12/19 01:30:16;;;;;;;61.38;30.38;;;;;;;6.65;100.00;102356.19;5054845;28;20032;-74
2023/12/19 01:32:42;;;;;;;60.72;30.25;;;;;;;6.64;100.00;102351.84;5054330;28;20025;-74
2023/12/19 01:35:07;;;;;;;67.88;29.35;;;;;;;6.58;100.00;102345.78;5054543;28;20095;-73
2023/12/19 01:37:33;;;;;;;63.92;28.92;;;;;;;6.60;100.00;102344.88;5054109;28;20131;-74
2023/12/19 01:39:58;;;;;;;55.03;26.45;;;;;;;6.61;100.00;102340.56;5054646;28;20400;-74
2023/12/19 01:42:24;;;;;;;58.10;26.73;;;;;;;6.66;100.00;102346.66;5054627;28;20035;-74
2023/12/19 01:45:08;;;;;;;54.20;26.30;;;;;;;6.65;100.00;102347.50;5054467;28;20091;-74
2023/12/19 01:47:33;;;;;;;42.47;24.13;;;;;;;6.60;100.00;102341.44;5054257;28;20269;-74
2023/12/19 01:49:59;;;;;;;58.60;26.02;;;;;;;6.63;100.00;102334.50;5054430;28;20237;-74
2023/12/19 01:52:24;;;;;;;54.72;27.63;;;;;;;6.59;100.00;102335.38;5054485;28;20041;-74
2023/12/19 01:54:49;;;;;;;53.33;28.58;;;;;;;6.60;100.00;102342.28;5054053;28;20032;-74
2023/12/19 01:57:15;;;;;;;48.80;27.40;;;;;;;6.63;100.00;102334.50;5053431;28;20079;-74
2023/12/19 01:59:40;;;;;;;57.75;27.25;;;;;;;6.66;100.00;102336.25;5053175;28;20036;-74
2023/12/19 02:02:06;;;;;;;51.35;26.80;;;;;;;6.68;100.00;102326.69;5053379;28;20036;-74
2023/12/19 02:04:31;;;;;;;57.88;27.48;;;;;;;6.65;100.00;102313.66;5052623;28;20032;-74
2023/12/19 02:06:56;;;;;;;55.47;28.77;;;;;;;6.66;100.00;102312.81;5053325;28;20201;-74
2023/12/19 02:09:22;;;;;;;54.38;27.33;;;;;;;6.71;100.00;102309.31;5053335;28;20155;-74
2023/12/19 02:11:47;;;;;;;55.22;28.80;;;;;;;6.71;100.00;102314.53;5052990;28;20036;-74
2023/12/19 02:14:12;;;;;;;57.95;27.98;;;;;;;6.75;100.00;102319.72;5052979;28;20344;-74
2023/12/19 02:16:38;;;;;;;52.88;27.02;;;;;;;6.75;100.00;102299.78;5052843;28;20041;-74
2023/12/19 02:19:05;;;;;;;56.60;25.88;;;;;;;6.77;100.00;102307.56;5052773;28;20240;-74
2023/12/19 02:21:31;;;;;;;50.25;25.40;;;;;;;6.76;100.00;102304.09;5053154;28;20254;-74
2023/12/19 02:23:57;;;;;;;46.20;24.88;;;;;;;6.79;100.00;102287.63;5053397;28;20102;-74
2023/12/19 02:26:23;;;;;;;51.42;25.42;;;;;;;6.78;100.00;102284.13;5052489;28;20033;-74
2023/12/19 02:28:52;;;;;;;49.50;24.77;;;;;;;6.77;100.00;102271.09;5053336;28;20048;-74
2023/12/19 02:31:19;;;;;;;54.50;25.38;;;;;;;6.77;100.00;102258.09;5053744;28;20056;-74
2023/12/19 02:33:44;;;;;;;46.17;24.77;;;;;;;6.80;100.00;102265.91;5053564;28;20036;-74
2023/12/19 02:36:10;;;;;;;45.58;25.55;;;;;;;6.80;100.00;102266.75;5053730;28;20104;-74
2023/12/19 02:38:36;;;;;;;52.85;25.67;;;;;;;6.73;100.00;102270.25;5053296;28;20044;-74
2023/12/19 02:41:01;;;;;;;47.35;23.48;;;;;;;6.77;100.00;102266.78;5054225;28;20035;-74
2023/12/19 02:43:26;;;;;;;44.25;24.13;;;;;;;6.82;100.00;102256.34;5053351;28;20051;-74
2023/12/19 02:45:52;;;;;;;49.00;24.42;;;;;;;6.80;100.00;102245.94;5054315;28;20040;-74
2023/12/19 02:48:17;;;;;;;46.63;24.45;;;;;;;6.72;100.00;102232.06;5053692;28;20037;-74
2023/12/19 02:50:42;;;;;;;40.63;23.42;;;;;;;6.72;100.00;102238.16;5054308;28;20036;-74
2023/12/19 02:53:08;;;;;;;43.70;23.42;;;;;;;6.70;100.00;102226.88;5054938;28;20033;-74
2023/12/19 02:55:33;;;;;;;43.20;23.92;;;;;;;6.71;100.00;102231.22;5053222;28;20025;-74
2023/12/19 02:57:58;;;;;;;41.08;22.77;;;;;;;6.73;100.00;102237.28;5053213;28;20224;-74
2023/12/19 03:00:24;;;;;;;40.80;22.35;;;;;;;6.73;100.00;102221.66;5053662;28;20044;-74
2023/12/19 03:02:49;;;;;;;40.67;22.17;;;;;;;6.81;100.00;102223.38;5053430;28;20376;-74
2023/12/19 03:05:15;;;;;;;45.20;21.98;;;;;;;6.84;100.00;102218.16;5053924;28;20041;-73
2023/12/19 03:07:40;;;;;;;48.90;21.50;;;;;;;6.84;100.00;102215.53;5053994;28;20297;-73
2023/12/19 03:10:08;;;;;;;44.83;22.13;;;;;;;6.78;100.00;102219.03;5053747;28;20043;-73
2023/12/19 03:12:33;;;;;;;45.38;23.10;;;;;;;6.80;100.00;102201.66;5053280;28;20037;-73
2023/12/19 03:14:58;;;;;;;36.60;22.30;;;;;;;6.82;100.00;102196.47;5052131;28;20051;-73
2023/12/19 03:17:24;;;;;;;42.40;22.75;;;;;;;6.84;100.00;102186.91;5053540;28;20016;-73
2023/12/19 03:19:49;;;;;;;36.25;21.73;;;;;;;6.82;100.00;102186.03;5054610;28;20039;-73
2023/12/19 03:22:14;;;;;;;45.92;23.35;;;;;;;6.82;100.00;102175.63;5055728;28;20017;-73
2023/12/19 03:24:40;;;;;;;39.70;23.42;;;;;;;6.85;100.00;102175.63;5057139;28;20048;-73
2023/12/19 03:27:05;;;;;;;46.42;23.40;;;;;;;6.87;100.00;102187.75;5055122;28;20021;-73
2023/12/19 03:29:32;;;;;;;50.40;23.08;;;;;;;6.86;100.00;102187.78;5057066;28;20040;-73
2023/12/19 03:31:58;;;;;;;38.25;22.73;;;;;;;6.82;100.00;102188.63;5056591;28;20060;-73
2023/12/19 03:34:23;;;;;;;42.60;23.38;;;;;;;6.80;100.00;102186.03;5057180;28;20303;-73
2023/12/19 03:36:49;;;;;;;40.42;23.17;;;;;;;6.83;100.00;102166.94;5057197;28;20033;-73
2023/12/19 03:39:14;;;;;;;34.47;21.58;;;;;;;6.85;100.00;102160.84;5055528;28;20692;-73
2023/12/19 03:41:39;;;;;;;40.58;21.33;;;;;;;6.85;100.00;102166.06;5056990;28;20228;-73
2023/12/19 03:44:05;;;;;;;35.33;19.98;;;;;;;6.88;100.00;102139.16;5056168;28;20092;-73
2023/12/19 03:46:30;;;;;;;35.83;21.55;;;;;;;6.93;100.00;102132.19;5056401;28;20227;-73
2023/12/19 03:48:55;;;;;;;35.03;21.30;;;;;;;6.91;100.00;102126.09;5056554;28;20367;-73
2023/12/19 03:51:21;;;;;;;36.05;21.33;;;;;;;6.90;100.00;102127.00;5056749;28;20037;-73
2023/12/19 03:53:46;;;;;;;40.05;20.77;;;;;;;6.91;100.00;102120.91;5056372;28;20056;-73
2023/12/19 03:56:12;;;;;;;32.95;20.85;;;;;;;6.90;100.00;102121.78;5055782;28;20029;-73
2023/12/19 03:58:40;;;;;;;36.25;21.42;;;;;;;6.93;100.00;102116.56;5056113;28;20021;-73
2023/12/19 04:01:05;;;;;;;35.33;19.55;;;;;;;6.93;100.00;102108.75;5053780;28;20083;-73
2023/12/19 04:03:31;;;;;;;34.83;21.77;;;;;;;6.91;100.00;102111.38;5056131;28;20275;-73
2023/12/19 04:05:56;;;;;;;31.55;20.33;;;;;;;6.90;100.00;102120.03;5055131;28;20021;-73
2023/12/19 04:08:21;;;;;;;38.72;21.00;;;;;;;6.89;100.00;102113.13;5056398;28;20039;-73
2023/12/19 04:10:47;;;;;;;37.38;20.95;;;;;;;6.92;100.00;102118.28;5055176;28;20031;-73
2023/12/19 04:13:12;;;;;;;35.38;21.08;;;;;;;6.88;100.00;102118.31;5055395;28;20102;-73
2023/12/19 04:15:38;;;;;;;39.55;20.15;;;;;;;6.87;100.00;102113.97;5056138;28;20315;-73
2023/12/19 04:18:04;;;;;;;33.67;19.98;;;;;;;6.85;100.00;102113.97;5055719;28;20037;-73
2023/12/19 04:20:29;;;;;;;35.63;21.02;;;;;;;6.85;100.00;102106.16;5056061;28;20429;-73
2023/12/19 04:22:55;;;;;;;35.63;20.23;;;;;;;6.88;100.00;102113.13;5055957;28;20099;-73
2023/12/19 04:25:20;;;;;;;36.58;20.35;;;;;;;6.89;100.00;102105.31;5055764;28;20068;-73
2023/12/19 04:27:46;;;;;;;32.10;20.00;;;;;;;6.90;100.00;102103.56;5055886;28;20052;-73
2023/12/19 04:30:11;;;;;;;30.98;19.00;;;;;;;6.90;100.00;102101.81;5055507;28;20143;-73
2023/12/19 04:32:36;;;;;;;30.95;19.13;;;;;;;6.90;100.00;102087.94;5054132;28;20205;-73
2023/12/19 04:35:03;;;;;;;30.95;19.80;;;;;;;6.89;100.00;102084.47;5054136;28;20088;-73
2023/12/19 04:37:28;;;;;;;30.67;19.65;;;;;;;6.89;100.00;102089.69;5055347;28;20047;-73
2023/12/19 04:39:54;;;;;;;31.27;19.25;;;;;;;6.95;100.00;102085.28;5055631;28;20103;-73
2023/12/19 04:42:19;;;;;;;32.35;19.95;;;;;;;6.99;100.00;102082.66;5055557;28;20032;-73
2023/12/19 04:44:46;;;;;;;35.80;20.48;;;;;;;6.98;100.00;102082.66;5055339;28;20036;-73
2023/12/19 04:47:12;;;;;;;36.45;20.00;;;;;;;6.96;100.00;102077.47;5073176;28;20025;-73
2023/12/19 04:49:38;;;;;;;35.20;20.50;;;;;;;6.95;100.00;102077.47;5075431;28;20103;-73
2023/12/19 04:52:04;;;;;;;40.85;22.63;;;;;;;6.97;100.00;102080.94;5075104;28;20024;-73
2023/12/19 04:54:30;;;;;;;43.30;23.60;;;;;;;7.03;100.00;102076.56;5075005;28;20058;-73
2023/12/19 04:56:55;;;;;;;46.25;24.02;;;;;;;7.02;100.00;102074.84;5074625;28;20645;-73
2023/12/19 04:59:20;;;;;;;42.20;24.08;;;;;;;7.01;100.00;102082.66;5074702;28;20107;-73
2023/12/19 05:01:46;;;;;;;45.33;25.25;;;;;;;7.08;100.00;102079.16;5075436;28;20032;-73
2023/12/19 05:04:11;;;;;;;42.90;25.15;;;;;;;7.06;100.00;102054.84;5074263;28;20099;-73
2023/12/19 05:06:37;;;;;;;50.17;25.52;;;;;;;7.04;100.00;102062.66;5075115;28;20386;-73
2023/12/19 05:09:02;;;;;;;45.45;25.95;;;;;;;7.03;100.00;102053.13;5074517;28;20547;-73
2023/12/19 05:11:28;;;;;;;48.83;24.85;;;;;;;7.07;100.00;102053.97;5074880;28;20036;-73
2023/12/19 05:13:53;;;;;;;45.80;25.13;;;;;;;7.07;100.00;102049.59;5074563;28;20040;-73
2023/12/19 05:16:19;;;;;;;40.33;23.67;;;;;;;7.11;100.00;102046.13;5074559;28;20063;-73
2023/12/19 05:18:45;;;;;;;46.25;24.10;;;;;;;7.15;100.00;102059.09;5075193;28;20024;-73
2023/12/19 05:21:11;;;;;;;41.60;23.08;;;;;;;7.16;100.00;102060.84;5074825;28;20115;-73
2023/12/19 05:23:38;;;;;;;36.47;21.65;;;;;;;7.17;100.00;102063.44;5074785;28;20139;-73
2023/12/19 05:26:05;;;;;;;29.30;20.30;;;;;;;7.19;100.00;102061.69;5074638;28;20047;-73
2023/12/19 05:28:31;;;;;;;34.13;20.75;;;;;;;7.19;100.00;102058.22;5074437;28;20036;-73
2023/12/19 05:30:57;;;;;;;35.50;20.30;;;;;;;7.24;100.00;102064.25;5074637;28;20059;-73
2023/12/19 05:33:26;;;;;;;42.67;22.05;;;;;;;7.23;100.00;102059.94;5074551;28;20235;-73
2023/12/19 05:35:52;;;;;;;37.70;22.30;;;;;;;7.22;100.00;102068.63;5074517;28;20227;-73
2023/12/19 05:38:18;;;;;;;44.80;24.77;;;;;;;7.25;100.00;102046.00;5074475;28;20041;-73
2023/12/19 05:40:44;;;;;;;39.08;24.00;;;;;;;7.25;100.00;102035.59;5074700;28;20036;-73
2023/12/19 05:43:09;;;;;;;41.25;24.45;;;;;;;7.28;100.00;102030.34;5073429;28;20108;-73
2023/12/19 05:45:35;;;;;;;50.65;26.00;;;;;;;7.27;100.00;102032.97;5074395;28;20043;-73
2023/12/19 05:48:00;;;;;;;45.58;24.58;;;;;;;7.30;100.00;102030.34;5074537;28;20547;-73
2023/12/19 05:50:26;;;;;;;48.92;26.30;;;;;;;7.26;100.00;102026.91;5074421;28;20319;-73
2023/12/19 05:52:52;;;;;;;52.80;27.38;;;;;;;7.26;100.00;102020.84;5074120;28;20110;-73
2023/12/19 05:55:19;;;;;;;55.88;28.10;;;;;;;7.28;100.00;102017.31;5074083;28;20205;-73
2023/12/19 05:57:44;;;;;;;53.33;27.20;;;;;;;7.26;100.00;102011.28;5073858;28;20116;-73
2023/12/19 06:00:10;;;;;;;57.47;28.52;;;;;;;7.28;100.00;102004.28;5073690;28;20040;-73
2023/12/19 06:02:35;;;;;;;49.20;25.77;;;;;;;7.32;100.00;102010.34;5074035;28;20524;-73
2023/12/19 06:05:01;;;;;;;47.17;27.23;;;;;;;7.31;100.00;102003.41;5073591;28;20039;-73
2023/12/19 06:07:26;;;;;;;48.63;27.23;;;;;;;7.32;100.00;102001.69;5073350;28;20039;-72
2023/12/19 06:09:52;;;;;;;48.85;27.33;;;;;;;7.41;100.00;102004.19;5074074;28;20047;-72
2023/12/19 06:12:17;;;;;;;51.20;27.55;;;;;;;7.46;100.00;102005.03;5074045;28;20032;-72
2023/12/19 06:14:43;;;;;;;51.30;27.38;;;;;;;7.46;100.00;102005.88;5074130;28;20032;-72
2023/12/19 06:17:08;;;;;;;47.60;25.85;;;;;;;7.43;100.00;102000.69;5074116;28;20377;-72
2023/12/19 06:19:34;;;;;;;48.90;26.25;;;;;;;7.48;100.00;101988.47;5074231;28;20077;-72
2023/12/19 06:21:59;;;;;;;43.00;25.70;;;;;;;7.53;100.00;101998.88;5073639;28;20219;-72
2023/12/19 06:24:24;;;;;;;47.30;25.73;;;;;;;7.46;100.00;101999.81;5074320;28;20039;-73
2023/12/19 06:26:50;;;;;;;44.85;26.35;;;;;;;7.49;100.00;101990.22;5073666;28;20040;-73
2023/12/19 06:29:16;;;;;;;51.45;27.83;;;;;;;7.45;100.00;101988.50;5073668;28;20559;-73
2023/12/19 06:31:43;;;;;;;54.40;27.98;;;;;;;7.48;100.00;101980.66;5074357;28;20100;-72
2023/12/19 06:34:09;;;;;;;47.85;26.58;;;;;;;7.48;100.00;101983.28;5073808;28;20041;-72
2023/12/19 06:36:37;;;;;;;53.03;27.08;;;;;;;7.51;100.00;101979.75;5070053;28;20023;-73
2023/12/19 06:39:03;;;;;;;48.80;27.27;;;;;;;7.50;100.00;101978.06;5073142;28;20033;-72
2023/12/19 06:41:28;;;;;;;53.60;27.05;;;;;;;7.53;100.00;101965.00;5073408;28;20339;-73
2023/12/19 06:43:53;;;;;;;53.17;27.75;;;;;;;7.51;100.00;101969.31;5073093;28;20315;-73
2023/12/19 06:46:19;;;;;;;50.42;28.50;;;;;;;7.50;100.00;101963.25;5073466;28;20029;-73
2023/12/19 06:48:44;;;;;;;48.08;28.75;;;;;;;7.48;100.00;101972.84;5073741;28;20036;-72
2023/12/19 06:51:10;;;;;;;64.15;30.20;;;;;;;7.47;100.00;101963.28;5073017;28;20350;-72
2023/12/19 06:53:38;;;;;;;64.72;30.98;;;;;;;7.49;100.00;101963.28;5072944;28;20335;-72
2023/12/19 06:56:04;;;;;;;62.60;31.45;;;;;;;7.60;100.00;101968.38;5076638;28;20048;-73
2023/12/19 06:58:31;;;;;;;59.53;29.45;;;;;;;7.60;100.00;101976.19;5076861;28;20251;-72
2023/12/19 07:00:56;;;;;;;62.80;31.25;;;;;;;7.58;100.00;101975.34;5077232;28;20343;-73
2023/12/19 07:03:22;;;;;;;58.75;29.98;;;;;;;7.54;100.00;101979.75;5077401;28;20144;-73
2023/12/19 07:05:47;;;;;;;68.43;31.52;;;;;;;7.55;100.00;101973.66;5076821;28;20099;-73
2023/12/19 07:08:13;;;;;;;64.45;29.83;;;;;;;7.52;100.00;101970.22;5074308;28;20244;-73
2023/12/19 07:10:38;;;;;;;64.93;30.52;;;;;;;7.53;100.00;101974.53;5077025;28;20464;-73
2023/12/19 07:13:03;;;;;;;56.80;31.38;;;;;;;7.50;100.00;101970.22;5076198;28;20036;-73
2023/12/19 07:15:29;;;;;;;60.67;29.73;;;;;;;7.52;100.00;101963.25;5076315;28;20063;-73
2023/12/19 07:17:54;;;;;;;57.53;30.10;;;;;;;7.53;100.00;101959.78;5076424;28;20282;-73
2023/12/19 07:20:19;;;;;;;51.10;28.25;;;;;;;7.50;100.00;101959.81;5076822;28;20040;-74
2023/12/19 07:22:45;;;;;;;58.35;27.38;;;;;;;7.47;100.00;101960.69;5077047;28;20036;-73
2023/12/19 07:25:10;;;;;;;47.60;25.80;;;;;;;7.47;100.00;101947.66;5076895;28;20119;-73
2023/12/19 07:27:36;;;;;;;47.97;25.65;;;;;;;7.48;100.00;101951.13;5075233;28;20024;-73
2023/12/19 07:30:02;;;;;;;47.92;24.45;;;;;;;7.49;100.00;101948.53;5075400;28;20031;-73
2023/12/19 07:32:27;;;;;;;41.15;24.48;;;;;;;7.54;100.00;101951.06;5076538;28;20320;-73
2023/12/19 07:34:52;;;;;;;40.05;23.40;;;;;;;7.45;100.00;101943.34;5076350;28;20036;-73
2023/12/19 07:37:17;;;;;;;33.40;22.35;;;;;;;7.43;100.00;101940.75;5076534;28;20032;-73
2023/12/19 07:39:43;;;;;;;39.95;23.55;;;;;;;7.38;100.00;101939.91;5072985;28;20043;-73
2023/12/19 07:42:08;;;;;;;36.80;23.67;;;;;;;7.41;100.00;101939.91;5074398;28;20317;-73
2023/12/19 07:44:34;;;;;;;38.42;24.05;;;;;;;7.44;100.00;101949.41;5084591;28;20081;-73
2023/12/19 07:46:59;;;;;;;47.60;25.05;;;;;;;7.42;100.00;101965.09;5094691;28;20032;-73
2023/12/19 07:49:24;;;;;;;39.25;24.92;;;;;;;7.38;100.00;101952.94;5095032;28;20035;-73
2023/12/19 07:51:50;;;;;;;45.00;25.83;;;;;;;7.40;100.00;101945.13;5094924;28;20035;-73
2023/12/19 07:54:17;;;;;;;56.60;27.58;;;;;;;7.42;100.00;101946.84;5095243;28;20265;-73
2023/12/19 07:56:42;;;;;;;48.60;28.05;;;;;;;7.43;100.00;101932.91;5096079;28;20153;-73
2023/12/19 07:59:09;;;;;;;43.90;26.80;;;;;;;7.46;100.00;101945.06;5095439;28;20383;-73
2023/12/19 08:01:35;;;;;;;49.67;26.95;;;;;;;7.49;100.00;101945.03;5094359;28;20047;-73
2023/12/19 08:04:00;;;;;;;49.78;27.90;;;;;;;7.47;100.00;101933.75;5094937;28;20035;-73
2023/12/19 08:06:27;;;;;;;50.03;27.58;;;;;;;7.44;100.00;101929.44;5093680;28;20050;-73
2023/12/19 08:08:52;;;;;;;48.83;26.60;;;;;;;7.44;100.00;101933.78;5093661;28;20085;-73
2023/12/19 08:11:18;;;;;;;45.47;25.00;;;;;;;7.44;100.00;101929.44;5073572;28;20392;-73
2023/12/19 08:13:44;;;;;;;46.08;26.38;;;;;;;7.46;100.00;101940.72;5073333;28;20067;-74
2023/12/19 08:16:10;;;;;;;42.35;25.55;;;;;;;7.49;100.00;101935.47;5073533;28;20340;-74
2023/12/19 08:18:36;;;;;;;43.20;25.92;;;;;;;7.49;100.00;101929.38;5074123;28;20105;-74
2023/12/19 08:21:05;;;;;;;38.95;25.42;;;;;;;7.49;100.00;101917.25;5074321;28;20030;-74
2023/12/19 08:23:30;;;;;;;35.95;23.80;;;;;;;7.54;100.00;101921.53;5076062;28;20357;-74
2023/12/19 08:25:56;;;;;;;37.05;23.90;;;;;;;7.50;100.00;101923.31;5075220;28;20017;-74
2023/12/19 08:28:21;;;;;;;34.20;23.13;;;;;;;7.49;100.00;101922.44;5074771;28;20095;-74
2023/12/19 08:30:47;;;;;;;35.63;23.95;;;;;;;7.50;100.00;101928.53;5075506;28;20225;-74
2023/12/19 08:33:13;;;;;;;36.85;22.63;;;;;;;7.54;100.00;101918.94;5074939;28;20224;-74
2023/12/19 08:35:39;;;;;;;36.97;23.00;;;;;;;7.50;100.00;101916.34;5075294;28;20308;-74
2023/12/19 08:38:05;;;;;;;35.30;22.85;;;;;;;7.55;100.00;101923.25;5075257;28;20036;-74
2023/12/19 08:40:30;;;;;;;37.65;23.20;;;;;;;7.55;100.00;101907.59;5075095;28;20040;-74
2023/12/19 08:42:56;;;;;;;40.17;23.13;;;;;;;7.53;100.00;101909.38;5075217;28;20043;-74
2023/12/19 08:45:26;;;;;;;35.58;22.38;;;;;;;7.58;100.00;101898.00;5075569;28;20036;-74
2023/12/19 08:47:53;;;;;;;34.53;21.17;;;;;;;7.58;100.00;101899.75;5074673;28;20343;-74
2023/12/19 08:50:19;;;;;;;33.85;21.63;;;;;;;7.54;100.00;101888.50;5075465;28;20339;-74
2023/12/19 08:52:44;;;;;;;31.65;20.55;;;;;;;7.57;100.00;101903.25;5075209;28;20111;-74
2023/12/19 08:55:11;;;;;;;35.22;21.55;;;;;;;7.54;100.00;101903.28;5071790;28;20106;-74
2023/12/19 08:57:43;;;;;;;34.17;21.85;;;;;;;7.60;100.00;101895.38;5070448;28;20049;-74
2023/12/19 09:00:16;;;;;;;32.90;21.60;;;;;;;7.58;100.00;101889.31;5074042;28;20224;-74
2023/12/19 09:02:42;;;;;;;33.65;21.70;;;;;;;7.57;100.00;101887.63;5074708;28;20113;-74
2023/12/19 09:05:14;;;;;;;41.03;21.70;;;;;;;7.57;100.00;101887.63;5074302;28;20036;-73
2023/12/19 09:07:44;;;;;;;32.28;21.13;;;;;;;7.58;100.00;101892.78;5071885;28;20089;-74
2023/12/19 09:10:13;;;;;;;32.50;21.85;;;;;;;7.60;100.00;101890.16;5071306;28;20090;-74
2023/12/19 09:12:39;;;;;;;32.28;20.60;;;;;;;7.58;100.00;101894.53;5074553;28;20028;-74
2023/12/19 09:15:06;;;;;;;31.08;21.33;;;;;;;7.59;100.00;101886.72;5072791;28;20073;-74
2023/12/19 09:17:31;;;;;;;30.88;21.15;;;;;;;7.61;100.00;101894.50;5064917;28;20048;-74
2023/12/19 09:19:58;;;;;;;29.10;20.17;;;;;;;7.66;100.00;101880.53;5068950;28;20067;-74
2023/12/19 09:22:25;;;;;;;30.23;20.55;;;;;;;7.67;100.00;101878.78;5073403;28;20052;-74
2023/12/19 09:24:50;;;;;;;28.17;19.08;;;;;;;7.67;100.00;101881.41;5074049;28;20070;-74
2023/12/19 09:27:16;;;;;;;37.22;20.05;;;;;;;7.66;100.00;101872.72;5068333;28;20021;-74
2023/12/19 09:29:41;;;;;;;25.55;19.52;;;;;;;7.68;100.00;101868.34;5070113;28;20035;-74
2023/12/19 09:32:07;;;;;;;29.15;19.17;;;;;;;7.68;100.00;101864.88;5073561;28;20042;-74
2023/12/19 09:34:34;;;;;;;31.05;19.33;;;;;;;7.69;100.00;101875.31;5072245;28;20043;-74
2023/12/19 09:36:59;;;;;;;34.03;20.15;;;;;;;7.65;100.00;101870.13;5067181;28;20082;-74
2023/12/19 09:39:24;;;;;;;29.05;18.45;;;;;;;7.64;100.00;101856.25;5063121;28;20335;-74
2023/12/19 09:41:50;;;;;;;30.23;19.58;;;;;;;7.65;100.00;101857.94;5067898;28;20028;-74
2023/12/19 09:44:15;;;;;;;36.10;19.27;;;;;;;7.65;100.00;101859.69;5069671;28;20029;-74
2023/12/19 09:46:41;;;;;;;34.42;21.75;;;;;;;7.67;100.00;101853.56;5069962;28;20025;-74
2023/12/19 09:49:09;;;;;;;34.58;24.17;;;;;;;7.72;100.00;101855.28;5066915;28;20031;-74
2023/12/19 09:51:38;;;;;;;30.23;20.98;;;;;;;7.69;100.00;101843.13;5059926;28;20126;-74
2023/12/19 09:54:03;;;;;;;;;;;;;;;7.72;100.00;101856.13;5056158;28;20357;-74
2023/12/19 09:56:29;;;;;;;31.65;19.52;;;;;;;7.75;100.00;101853.50;5057419;28;19952;-74
2023/12/19 09:58:56;;;;;;;35.50;19.48;;;;;;;7.76;100.00;101850.00;5057868;28;20037;-74
2023/12/19 10:01:21;;;;;;;25.88;18.48;;;;;;;7.74;100.00;101849.16;5068993;28;20438;-74
2023/12/19 10:03:49;;;;;;;26.42;18.65;;;;;;;7.73;100.00;101850.06;5064426;28;20099;-74
2023/12/19 10:06:17;;;;;;;25.97;17.80;;;;;;;7.73;100.00;101847.44;5067716;28;20362;-74
2023/12/19 10:08:43;;;;;;;30.23;18.02;;;;;;;7.74;100.00;101851.75;5056042;28;20154;-74
2023/12/19 10:11:16;;;;;;;27.23;18.40;;;;;;;7.74;100.00;101846.53;5054744;28;20806;-74
2023/12/19 10:13:41;;;;;;;23.63;16.83;;;;;;;7.78;100.00;101832.56;5052028;28;20395;-74
2023/12/19 10:16:09;;;;;;;24.88;17.63;;;;;;;7.77;100.00;101833.47;5052470;28;20036;-73
2023/12/19 10:18:36;;;;;;;22.63;15.88;;;;;;;7.79;100.00;101836.91;5056315;28;20494;-74
2023/12/19 10:21:15;;;;;;;27.20;16.05;;;;;;;7.79;100.00;101823.03;5068640;28;20032;-74
2023/12/19 10:23:41;;;;;;;23.08;15.27;;;;;;;7.80;100.00;101822.13;5067444;28;20127;-74
2023/12/19 10:26:08;;;;;;;27.02;16.73;;;;;;;7.77;100.00;101811.75;5061681;28;20083;-74
2023/12/19 10:28:34;;;;;;;24.30;16.55;;;;;;;7.80;100.00;101824.72;5053014;28;20119;-74
2023/12/19 10:31:05;;;;;;;25.23;16.42;;;;;;;7.79;100.00;101818.66;5054773;28;20032;-74
2023/12/19 10:33:39;;;;;;;20.60;14.77;;;;;;;7.80;100.00;101802.13;5055569;28;20106;-74
2023/12/19 10:36:05;;;;;;;22.80;15.80;;;;;;;7.82;100.00;101796.88;5067409;28;20059;-74
2023/12/19 10:38:44;;;;;;;21.67;15.70;;;;;;;7.81;100.00;101793.44;5073198;28;20039;-74
2023/12/19 10:41:09;;;;;;;22.30;16.02;;;;;;;7.80;100.00;101786.47;5072833;28;20096;-74
2023/12/19 10:43:38;;;;;;;25.15;16.80;;;;;;;7.83;100.00;101783.81;5072688;28;20028;-74
2023/12/19 10:46:04;;;;;;;25.00;16.52;;;;;;;7.83;100.00;101777.75;5072429;28;20311;-74
2023/12/19 10:48:30;;;;;;;22.45;16.30;;;;;;;7.84;100.00;101779.47;5069738;28;20032;-74
2023/12/19 10:50:57;;;;;;;21.08;15.30;;;;;;;7.82;100.00;101763.88;5070899;28;20205;-74
2023/12/19 10:53:23;;;;;;;20.55;14.85;;;;;;;7.79;100.00;101770.88;5070339;28;20036;-74
2023/12/19 10:55:53;;;;;;;18.63;14.98;;;;;;;7.83;100.00;101770.78;5073014;28;20079;-74
2023/12/19 10:58:20;;;;;;;19.65;14.23;;;;;;;7.79;100.00;101750.88;5072463;28;20435;-74
2023/12/19 11:00:50;;;;;;;17.33;13.63;;;;;;;7.79;100.00;101745.66;5072364;28;20132;-74
2023/12/19 11:03:25;;;;;;;20.70;14.00;;;;;;;7.81;100.00;101735.19;5072189;28;20033;-74